createdAt,value
2023-02-01T00:00:27.850Z,100385.19
2023-02-01T00:02:54.585Z,100376.72
2023-02-01T00:05:21.138Z,100380.00
2023-02-01T00:07:49.991Z,100384.88
2023-02-01T00:10:17.313Z,100364.13
2023-02-01T00:12:44.313Z,100366.78
2023-02-01T00:15:11.114Z,100370.06
2023-02-01T00:17:38.174Z,100373.00
2023-02-01T00:20:05.241Z,100361.94
2023-02-01T00:22:31.750Z,100352.25
2023-02-01T00:24:58.318Z,100354.28
2023-02-01T00:27:24.857Z,100352.66
2023-02-01T00:29:51.363Z,100347.13
2023-02-01T00:32:18.227Z,100354.63
2023-02-01T00:34:44.791Z,100349.09
2023-02-01T00:37:11.716Z,100352.72
2023-02-01T00:39:38.267Z,100348.28
2023-02-01T00:42:04.841Z,100343.31
2023-02-01T00:44:34.175Z,100346.34
2023-02-01T00:47:01.341Z,100339.38
2023-02-01T00:49:29.202Z,100336.59
2023-02-01T00:51:56.074Z,100353.75
2023-02-01T00:54:22.649Z,100346.16
2023-02-01T00:56:49.202Z,100351.13
2023-02-01T00:59:15.877Z,100347.97
2023-02-01T01:01:42.449Z,100340.53
2023-02-01T01:04:08.971Z,100336.59
2023-02-01T01:06:35.637Z,100337.13
2023-02-01T01:09:06.218Z,100342.91
2023-02-01T01:11:36.150Z,100341.19
2023-02-01T01:14:05.079Z,100334.63
2023-02-01T01:16:32.443Z,100344.16
2023-02-01T01:18:59.929Z,100336.00
2023-02-01T01:21:27.235Z,100345.19
2023-02-01T01:23:54.518Z,100345.94
2023-02-01T01:26:26.460Z,100348.38
2023-02-01T01:28:55.227Z,100337.50
2023-02-01T01:31:22.092Z,100338.63
2023-02-01T01:33:51.380Z,100327.13
2023-02-01T01:36:18.248Z,100322.19
2023-02-01T01:38:44.792Z,100325.28
2023-02-01T01:41:16.539Z,100324.81
2023-02-01T01:43:51.968Z,100320.03
2023-02-01T01:46:24.252Z,100318.06
2023-02-01T01:49:02.327Z,100323.19
2023-02-01T01:51:33.217Z,100311.22
2023-02-01T01:54:18.224Z,100317.31
2023-02-01T01:56:49.596Z,100308.88
2023-02-01T01:59:16.336Z,100314.09
2023-02-01T02:01:43.419Z,100305.88
2023-02-01T02:04:10.660Z,100306.34
2023-02-01T02:06:56.929Z,100291.22
2023-02-01T02:09:23.878Z,100292.06
2023-02-01T02:11:50.458Z,100299.38
2023-02-01T02:14:19.793Z,100294.91
2023-02-01T02:17:31.000Z,100287.75
2023-02-01T02:20:12.939Z,100283.84
2023-02-01T02:23:12.548Z,100284.50
2023-02-01T02:25:55.202Z,100277.44
2023-02-01T02:28:40.520Z,100281.16
2023-02-01T02:31:36.301Z,100270.88
2023-02-01T02:34:18.051Z,100284.41
2023-02-01T02:37:02.188Z,100269.56
2023-02-01T02:39:40.958Z,100264.81
2023-02-01T02:42:36.760Z,100261.59
2023-02-01T02:45:26.450Z,100249.81
2023-02-01T02:48:10.770Z,100245.25
2023-02-01T02:51:03.082Z,100251.34
2023-02-01T02:54:03.524Z,100236.34
2023-02-01T02:56:49.242Z,100235.41
2023-02-01T02:59:39.182Z,100232.28
2023-02-01T03:02:25.579Z,100230.94
2023-02-01T03:04:58.659Z,100232.03
2023-02-01T03:07:45.162Z,100228.25
2023-02-01T03:10:24.672Z,100224.78
2023-02-01T03:12:57.404Z,100226.28
2023-02-01T03:15:31.105Z,100213.69
2023-02-01T03:18:01.584Z,100214.31
2023-02-01T03:20:30.435Z,100210.81
2023-02-01T03:23:00.150Z,100213.78
2023-02-01T03:25:31.935Z,100198.41
2023-02-01T03:28:07.027Z,100201.97
2023-02-01T03:30:41.314Z,100199.66
2023-02-01T03:33:21.819Z,100200.88
2023-02-01T03:36:15.059Z,100196.06
2023-02-01T03:38:59.644Z,100188.81
2023-02-01T03:41:26.346Z,100181.47
2023-02-01T03:44:02.167Z,100181.28
2023-02-01T03:46:35.228Z,100179.72
2023-02-01T03:49:07.837Z,100176.25
2023-02-01T03:51:38.109Z,100173.53
2023-02-01T03:54:07.528Z,100167.41
2023-02-01T03:56:38.979Z,100171.16
2023-02-01T03:59:05.567Z,100164.84
2023-02-01T04:01:35.332Z,100161.09
2023-02-01T04:04:01.901Z,100160.59
2023-02-01T04:06:28.783Z,100159.09
2023-02-01T04:08:59.804Z,100148.84
2023-02-01T04:11:28.326Z,100143.41
2023-02-01T04:13:54.860Z,100143.66
2023-02-01T04:16:21.401Z,100145.44
2023-02-01T04:18:48.072Z,100146.13
2023-02-01T04:21:14.554Z,100139.25
2023-02-01T04:23:41.038Z,100150.94
2023-02-01T04:26:07.719Z,100146.56
2023-02-01T04:28:34.281Z,100129.41
2023-02-01T04:31:00.946Z,100126.50
2023-02-01T04:33:27.571Z,100122.56
2023-02-01T04:35:54.120Z,100125.03
2023-02-01T04:38:20.674Z,100110.78
2023-02-01T04:40:50.329Z,100123.69
2023-02-01T04:43:18.060Z,100120.84
2023-02-01T04:45:49.655Z,100134.31
2023-02-01T04:48:17.474Z,100113.34
2023-02-01T04:50:48.235Z,100108.78
2023-02-01T04:53:18.639Z,100108.41
2023-02-01T04:55:45.974Z,100110.91
2023-02-01T04:58:12.506Z,100115.03
2023-02-01T05:00:39.398Z,100083.69
2023-02-01T05:03:06.322Z,100087.75
2023-02-01T05:05:33.292Z,100089.28
2023-02-01T05:07:59.838Z,100092.47
2023-02-01T05:10:26.343Z,100082.63
2023-02-01T05:13:11.817Z,100077.97
2023-02-01T05:15:38.356Z,100079.19
2023-02-01T05:18:05.225Z,100083.63
2023-02-01T05:20:31.853Z,100067.81
2023-02-01T05:22:58.426Z,100062.56
2023-02-01T05:25:25.096Z,100063.03
2023-02-01T05:27:51.884Z,100064.16
2023-02-01T05:30:18.524Z,100053.88
2023-02-01T05:32:45.038Z,100063.88
2023-02-01T05:35:11.625Z,100062.94
2023-02-01T05:37:38.129Z,100058.31
2023-02-01T05:40:05.378Z,100054.81
2023-02-01T05:42:31.898Z,100044.59
2023-02-01T05:44:58.458Z,100043.84
2023-02-01T05:47:24.972Z,100039.94
2023-02-01T05:49:51.484Z,100042.53
2023-02-01T05:52:20.395Z,100040.69
2023-02-01T05:54:50.331Z,100045.53
2023-02-01T05:57:17.234Z,100046.69
2023-02-01T05:59:46.445Z,100040.69
2023-02-01T06:02:13.093Z,100029.91
2023-02-01T06:04:40.165Z,100038.09
2023-02-01T06:07:08.635Z,100032.03
2023-02-01T06:09:36.389Z,100035.59
2023-02-01T06:12:04.177Z,100047.06
2023-02-01T06:14:30.892Z,100040.78
2023-02-01T06:16:57.541Z,100043.72
2023-02-01T06:19:24.792Z,100055.56
2023-02-01T06:21:51.321Z,100046.16
2023-02-01T06:24:17.863Z,100049.50
2023-02-01T06:26:44.445Z,100042.91
2023-02-01T06:29:11.623Z,100050.56
2023-02-01T06:31:38.247Z,100057.91
2023-02-01T06:34:05.014Z,100070.09
2023-02-01T06:36:31.914Z,100075.63
2023-02-01T06:39:00.179Z,100078.56
2023-02-01T06:41:29.479Z,100074.78
2023-02-01T06:43:56.427Z,100090.09
2023-02-01T06:46:23.025Z,100066.00
2023-02-01T06:48:51.227Z,100081.78
2023-02-01T06:51:26.733Z,100083.16
2023-02-01T06:53:53.487Z,100083.44
2023-02-01T06:56:21.311Z,100086.91
2023-02-01T06:58:48.678Z,100092.91
2023-02-01T07:01:16.256Z,100087.53
2023-02-01T07:03:43.296Z,100090.28
2023-02-01T07:06:10.440Z,100092.63
2023-02-01T07:08:38.835Z,100098.03
2023-02-01T07:11:10.447Z,100113.53
2023-02-01T07:13:37.844Z,100110.19
2023-02-01T07:16:07.406Z,100118.88
2023-02-01T07:18:34.315Z,100108.16
2023-02-01T07:21:01.162Z,100109.25
2023-02-01T07:23:28.695Z,100095.97
2023-02-01T07:26:00.205Z,100104.59
2023-02-01T07:28:29.123Z,100103.00
2023-02-01T07:30:55.706Z,100120.75
2023-02-01T07:33:25.988Z,100107.63
2023-02-01T07:35:54.357Z,100122.44
2023-02-01T07:38:22.705Z,100117.66
2023-02-01T07:40:49.353Z,100121.69
2023-02-01T07:43:16.046Z,100128.78
2023-02-01T07:45:42.595Z,100129.00
2023-02-01T07:48:09.134Z,100127.91
2023-02-01T07:50:35.635Z,100133.94
2023-02-01T07:53:02.892Z,100133.47
2023-02-01T07:55:29.544Z,100122.22
2023-02-01T07:57:59.640Z,100134.25
2023-02-01T08:00:45.851Z,100144.72
2023-02-01T08:03:12.384Z,100130.88
2023-02-01T08:05:39.122Z,100146.19
2023-02-01T08:08:05.969Z,100146.91
2023-02-01T08:10:33.150Z,100148.72
2023-02-01T08:13:00.879Z,100156.75
2023-02-01T08:15:29.077Z,100166.41
2023-02-01T08:17:56.140Z,100162.81
2023-02-01T08:20:24.994Z,100156.09
2023-02-01T08:22:54.323Z,100159.97
2023-02-01T08:25:21.382Z,100150.34
2023-02-01T08:27:48.232Z,100148.78
2023-02-01T08:30:14.887Z,100164.91
2023-02-01T08:32:41.451Z,100147.56
2023-02-01T08:35:09.330Z,100162.50
2023-02-01T08:37:36.468Z,100159.16
2023-02-01T08:40:04.218Z,100168.03
2023-02-01T08:42:49.237Z,100163.25
2023-02-01T08:45:15.815Z,100175.50
2023-02-01T08:47:42.538Z,100177.22
2023-02-01T08:50:10.137Z,100175.41
2023-02-01T08:52:38.288Z,100167.16
2023-02-01T08:55:06.639Z,100168.75
2023-02-01T08:57:34.424Z,100168.94
2023-02-01T09:00:01.671Z,100180.66
2023-02-01T09:02:28.255Z,100177.06
2023-02-01T09:04:56.677Z,100166.31
2023-02-01T09:07:23.655Z,100163.94
2023-02-01T09:09:50.189Z,100160.63
2023-02-01T09:12:16.699Z,100175.47
2023-02-01T09:14:43.242Z,100179.09
2023-02-01T09:17:09.951Z,100195.34
2023-02-01T09:19:36.433Z,100180.25
2023-02-01T09:22:03.099Z,100194.00
2023-02-01T09:24:29.689Z,100186.94
2023-02-01T09:26:56.319Z,100184.41
2023-02-01T09:29:22.889Z,100173.19
2023-02-01T09:32:03.036Z,100181.38
2023-02-01T09:34:30.910Z,100177.31
2023-02-01T09:36:57.453Z,100180.66
2023-02-01T09:39:24.271Z,100176.31
2023-02-01T09:41:59.222Z,100185.09
2023-02-01T09:44:43.891Z,100169.63
2023-02-01T09:47:18.548Z,100163.72
2023-02-01T09:50:11.118Z,100156.56
2023-02-01T09:52:45.731Z,100168.47
2023-02-01T09:55:23.716Z,100155.75
2023-02-01T09:58:15.950Z,100167.63
2023-02-01T10:00:51.682Z,100171.78
2023-02-01T10:03:18.476Z,100172.44
2023-02-01T10:06:08.600Z,100161.91
2023-02-01T10:08:55.261Z,100165.47
2023-02-01T10:11:51.035Z,100170.56
2023-02-01T10:14:36.046Z,100163.25
2023-02-01T10:17:20.038Z,100155.72
2023-02-01T10:19:54.194Z,100160.78
2023-02-01T10:22:51.827Z,100151.31
2023-02-01T10:25:32.788Z,100159.13
2023-02-01T10:28:02.507Z,100151.63
2023-02-01T10:30:38.657Z,100161.50
2023-02-01T10:33:18.382Z,100158.84
2023-02-01T10:35:47.166Z,100155.50
2023-02-01T10:38:25.404Z,100154.53
2023-02-01T10:40:54.078Z,100148.97
2023-02-01T10:43:20.985Z,100144.38
2023-02-01T10:45:47.487Z,100130.59
2023-02-01T10:48:14.275Z,100135.13
2023-02-01T10:51:00.804Z,100134.78
2023-02-01T10:53:40.528Z,100121.13
2023-02-01T10:56:09.365Z,100103.59
2023-02-01T10:58:38.066Z,100097.63
2023-02-01T11:01:08.438Z,100090.47
2023-02-01T11:03:46.195Z,100088.06
2023-02-01T11:06:22.821Z,100098.09
2023-02-01T11:08:51.926Z,100092.41
2023-02-01T11:11:20.097Z,100082.88
2023-02-01T11:14:11.790Z,100073.75
2023-02-01T11:16:39.573Z,100081.53
2023-02-01T11:19:07.197Z,100068.19
2023-02-01T11:21:34.991Z,100066.75
2023-02-01T11:24:04.158Z,100052.59
2023-02-01T11:26:32.129Z,100043.31
2023-02-01T11:29:05.303Z,100050.34
2023-02-01T11:31:34.839Z,100044.00
2023-02-01T11:34:09.893Z,100049.06
2023-02-01T11:36:37.937Z,100045.81
2023-02-01T11:39:13.842Z,100032.09
2023-02-01T11:41:55.845Z,100020.84
2023-02-01T11:44:34.520Z,100023.34
2023-02-01T11:47:32.366Z,100021.81
2023-02-01T11:50:13.376Z,100005.69
2023-02-01T11:53:03.990Z,100011.75
2023-02-01T11:55:58.130Z,100002.63
2023-02-01T11:58:33.799Z,99987.81
2023-02-01T12:01:23.934Z,99976.97
2023-02-01T12:04:09.012Z,99965.19
2023-02-01T12:06:58.592Z,99962.66
2023-02-01T12:09:43.839Z,99954.22
2023-02-01T12:12:48.013Z,99931.00
2023-02-01T12:15:30.174Z,99921.00
2023-02-01T12:18:14.052Z,99914.03
2023-02-01T12:21:04.486Z,99898.31
2023-02-01T12:23:42.023Z,99900.88
2023-02-01T12:26:27.966Z,99892.31
2023-02-01T12:29:08.260Z,99895.97
2023-02-01T12:31:47.208Z,99882.03
2023-02-01T12:34:31.281Z,99881.78
2023-02-01T12:37:07.076Z,99859.16
2023-02-01T12:39:46.467Z,99860.63
2023-02-01T12:42:19.299Z,99855.72
2023-02-01T12:44:55.196Z,99851.00
2023-02-01T12:47:35.154Z,99833.22
2023-02-01T12:50:09.138Z,99856.28
2023-02-01T12:52:45.484Z,99843.41
2023-02-01T12:55:39.920Z,99865.66
2023-02-01T12:58:17.584Z,99867.72
2023-02-01T13:00:53.841Z,99922.56
2023-02-01T13:03:50.881Z,99923.88
2023-02-01T13:06:22.736Z,99910.16
2023-02-01T13:09:02.785Z,99930.69
2023-02-01T13:11:33.962Z,99938.91
2023-02-01T13:14:23.737Z,99943.00
2023-02-01T13:17:00.506Z,99957.00
2023-02-01T13:19:53.258Z,99941.91
2023-02-01T13:22:33.940Z,99943.56
2023-02-01T13:25:22.773Z,99935.91
2023-02-01T13:27:50.081Z,99936.50
2023-02-01T13:30:25.466Z,99949.38
2023-02-01T13:33:53.194Z,99952.78
2023-02-01T13:36:00.046Z,99967.50
2023-02-01T13:38:36.780Z,99969.63
2023-02-01T13:41:18.346Z,99976.56
2023-02-01T13:43:50.550Z,99988.59
2023-02-01T13:46:18.124Z,99981.28
2023-02-01T13:48:52.715Z,99994.25
2023-02-01T13:51:43.241Z,99986.53
2023-02-01T13:54:27.155Z,99990.41
2023-02-01T13:56:55.211Z,99984.38
2023-02-01T13:59:40.403Z,99986.84
2023-02-01T14:02:37.980Z,99986.25
2023-02-01T14:05:08.742Z,99997.00
2023-02-01T14:07:35.357Z,100000.69
2023-02-01T14:10:39.673Z,99991.66
2023-02-01T14:13:14.286Z,100008.28
2023-02-01T14:15:40.930Z,100026.78
2023-02-01T14:18:47.341Z,100023.19
2023-02-01T14:21:31.959Z,100021.94
2023-02-01T14:24:10.343Z,100021.31
2023-02-01T14:26:52.007Z,100011.28
2023-02-01T14:29:25.321Z,100023.94
2023-02-01T14:32:06.973Z,100025.22
2023-02-01T14:34:43.926Z,100032.31
2023-02-01T14:37:18.321Z,100020.22
2023-02-01T14:39:53.082Z,100031.00
2023-02-01T14:42:38.045Z,100024.97
2023-02-01T14:45:20.298Z,100028.97
2023-02-01T14:47:50.654Z,100028.34
2023-02-01T14:50:26.090Z,100015.41
2023-02-01T14:53:10.642Z,100020.75
2023-02-01T14:56:02.663Z,100014.88
2023-02-01T14:58:35.385Z,100019.44
2023-02-01T15:01:15.806Z,100014.78
2023-02-01T15:03:55.475Z,100032.41
2023-02-01T15:06:43.795Z,100036.41
2023-02-01T15:09:15.662Z,100033.97
2023-02-01T15:12:06.290Z,100024.44
2023-02-01T15:14:37.061Z,100028.47
2023-02-01T15:17:19.625Z,100021.91
2023-02-01T15:20:14.446Z,100015.47
2023-02-01T15:22:41.035Z,100027.16
2023-02-01T15:25:21.380Z,100038.81
2023-02-01T15:27:48.397Z,100021.34
2023-02-01T15:30:27.393Z,100004.44
2023-02-01T15:33:09.323Z,100014.88
2023-02-01T15:35:41.841Z,100003.44
2023-02-01T15:38:30.671Z,100009.00
2023-02-01T15:41:14.047Z,100014.84
2023-02-01T15:43:51.353Z,100014.09
2023-02-01T15:46:30.841Z,100013.16
2023-02-01T15:48:57.890Z,100023.28
2023-02-01T15:51:33.528Z,100020.63
2023-02-01T15:54:10.790Z,100034.13
2023-02-01T15:56:40.186Z,100043.06
2023-02-01T15:59:16.095Z,100040.31
2023-02-01T16:01:43.365Z,100038.22
2023-02-01T16:04:21.465Z,100030.88
2023-02-01T16:06:50.951Z,100037.53
2023-02-01T16:09:21.536Z,100044.50
2023-02-01T16:12:00.117Z,100041.41
2023-02-01T16:14:28.121Z,100051.56
2023-02-01T16:16:58.194Z,100037.91
2023-02-01T16:19:28.877Z,100050.31
2023-02-01T16:21:56.838Z,100057.31
2023-02-01T16:24:25.950Z,100100.44
2023-02-01T16:26:52.906Z,100132.84
2023-02-01T16:29:19.436Z,100103.47
2023-02-01T16:31:46.226Z,100100.28
2023-02-01T16:34:17.907Z,100101.22
2023-02-01T16:36:53.079Z,100109.03
2023-02-01T16:39:21.131Z,100112.38
2023-02-01T16:41:48.033Z,100104.22
2023-02-01T16:44:14.669Z,100123.31
2023-02-01T16:46:44.610Z,100143.31
2023-02-01T16:49:25.867Z,100134.91
2023-02-01T16:51:57.298Z,100129.31
2023-02-01T16:54:25.149Z,100140.59
2023-02-01T16:56:51.657Z,100137.22
2023-02-01T16:59:18.412Z,100139.84
2023-02-01T17:01:45.184Z,100125.50
2023-02-01T17:04:11.974Z,100129.09
2023-02-01T17:06:39.424Z,100129.44
2023-02-01T17:09:07.145Z,100134.06
2023-02-01T17:11:34.514Z,100154.47
2023-02-01T17:14:22.370Z,100164.59
2023-02-01T17:16:50.593Z,100169.09
2023-02-01T17:19:23.280Z,100173.72
2023-02-01T17:21:54.871Z,100155.75
2023-02-01T17:24:25.788Z,100174.41
2023-02-01T17:26:52.721Z,100163.53
2023-02-01T17:29:20.118Z,100158.06
2023-02-01T17:31:51.007Z,100156.38
2023-02-01T17:34:22.337Z,100161.38
2023-02-01T17:36:49.772Z,100163.69
2023-02-01T17:39:36.348Z,100183.47
2023-02-01T17:42:04.883Z,100178.25
2023-02-01T17:44:32.033Z,100194.88
2023-02-01T17:46:59.680Z,100205.59
2023-02-01T17:49:28.751Z,100198.72
2023-02-01T17:51:57.552Z,100180.53
2023-02-01T17:54:25.728Z,100152.44
2023-02-01T17:56:52.756Z,100221.66
2023-02-01T17:59:20.073Z,100217.97
2023-02-01T18:01:47.000Z,100215.88
2023-02-01T18:04:16.833Z,100231.06
2023-02-01T18:06:44.130Z,100223.88
2023-02-01T18:09:10.673Z,100207.09
2023-02-01T18:11:37.939Z,100168.81
2023-02-01T18:14:04.512Z,100166.91
2023-02-01T18:16:33.892Z,100171.88
2023-02-01T18:19:05.023Z,100169.94
2023-02-01T18:21:37.966Z,100166.91
2023-02-01T18:24:05.151Z,100168.31
2023-02-01T18:26:31.943Z,100166.50
2023-02-01T18:28:58.711Z,100166.59
2023-02-01T18:31:29.789Z,100162.06
2023-02-01T18:33:58.338Z,100167.31
2023-02-01T18:36:26.026Z,100176.63
2023-02-01T18:38:56.244Z,100174.88
2023-02-01T18:41:23.967Z,100163.13
2023-02-01T18:43:52.123Z,100172.06
2023-02-01T18:46:19.283Z,100168.63
2023-02-01T18:48:46.908Z,100171.69
2023-02-01T18:51:19.684Z,100167.03
2023-02-01T18:53:49.682Z,100176.44
2023-02-01T18:56:20.708Z,100169.88
2023-02-01T18:58:47.552Z,100172.28
2023-02-01T19:01:17.113Z,100168.31
2023-02-01T19:03:54.311Z,100170.06
2023-02-01T19:06:27.098Z,100170.19
2023-02-01T19:08:55.951Z,100172.06
2023-02-01T19:11:22.833Z,100160.28
2023-02-01T19:13:50.541Z,100170.47
2023-02-01T19:16:17.697Z,100167.31
2023-02-01T19:18:44.225Z,100159.53
2023-02-01T19:21:13.081Z,100171.50
2023-02-01T19:23:41.072Z,100172.25
2023-02-01T19:26:12.545Z,100174.41
2023-02-01T19:28:39.443Z,100170.06
2023-02-01T19:31:08.186Z,100167.75
2023-02-01T19:33:35.532Z,100165.19
2023-02-01T19:36:05.788Z,100183.16
2023-02-01T19:38:33.293Z,100182.00
2023-02-01T19:41:00.317Z,100188.06
2023-02-01T19:43:28.721Z,100173.91
2023-02-01T19:45:55.995Z,100190.06
2023-02-01T19:48:22.888Z,100198.06
2023-02-01T19:50:49.832Z,100200.59
2023-02-01T19:53:17.991Z,100203.59
2023-02-01T19:55:45.814Z,100199.84
2023-02-01T19:58:12.486Z,100196.34
2023-02-01T20:00:38.156Z,100199.03
2023-02-01T20:03:04.732Z,100205.38
2023-02-01T20:05:31.326Z,100188.06
2023-02-01T20:07:57.884Z,100201.53
2023-02-01T20:10:24.620Z,100216.47
2023-02-01T20:12:51.120Z,100206.50
2023-02-01T20:15:17.668Z,100208.38
2023-02-01T20:17:44.691Z,100206.63
2023-02-01T20:20:11.851Z,100208.34
2023-02-01T20:22:38.359Z,100206.22
2023-02-01T20:25:06.054Z,100219.09
2023-02-01T20:27:33.404Z,100216.84
2023-02-01T20:29:59.942Z,100218.97
2023-02-01T20:32:26.484Z,100231.59
2023-02-01T20:34:54.204Z,100215.56
2023-02-01T20:37:21.451Z,100223.50
2023-02-01T20:39:48.050Z,100232.78
2023-02-01T20:42:14.633Z,100238.72
2023-02-01T20:44:41.125Z,100228.06
2023-02-01T20:47:08.434Z,100233.09
2023-02-01T20:49:35.675Z,100235.44
2023-02-01T20:52:02.240Z,100235.56
2023-02-01T20:54:28.761Z,100222.34
2023-02-01T20:56:55.319Z,100234.97
2023-02-01T20:59:22.207Z,100242.47
2023-02-01T21:01:54.702Z,100245.47
2023-02-01T21:04:25.085Z,100236.00
2023-02-01T21:06:52.173Z,100240.03
2023-02-01T21:09:18.664Z,100247.97
2023-02-01T21:11:45.525Z,100244.16
2023-02-01T21:14:12.739Z,100251.03
2023-02-01T21:16:39.534Z,100242.69
2023-02-01T21:19:06.768Z,100239.63
2023-02-01T21:21:33.292Z,100249.75
2023-02-01T21:24:00.540Z,100247.84
2023-02-01T21:26:28.389Z,100248.50
2023-02-01T21:28:56.344Z,100245.13
2023-02-01T21:31:25.561Z,100244.69
2023-02-01T21:33:52.628Z,100246.16
2023-02-01T21:36:19.765Z,100237.28
2023-02-01T21:38:51.252Z,100240.00
2023-02-01T21:41:38.483Z,100236.78
2023-02-01T21:44:06.034Z,100254.09
2023-02-01T21:46:33.076Z,100242.69
2023-02-01T21:49:05.338Z,100248.91
2023-02-01T21:51:35.130Z,100262.25
2023-02-01T21:54:02.108Z,100255.69
2023-02-01T21:56:28.670Z,100268.16
2023-02-01T21:58:55.511Z,100273.16
2023-02-01T22:01:22.629Z,100276.31
2023-02-01T22:03:49.864Z,100267.34
2023-02-01T22:06:28.306Z,100279.25
2023-02-01T22:08:55.240Z,100286.84
2023-02-01T22:11:22.657Z,100291.97
2023-02-01T22:13:49.683Z,100287.44
2023-02-01T22:16:18.106Z,100287.78
2023-02-01T22:18:45.608Z,100298.19
2023-02-01T22:21:12.271Z,100309.97
2023-02-01T22:23:38.874Z,100301.34
2023-02-01T22:26:09.567Z,100304.69
2023-02-01T22:28:40.325Z,100306.13
2023-02-01T22:31:09.036Z,100316.00
2023-02-01T22:33:37.235Z,100310.22
2023-02-01T22:36:05.239Z,100303.66
2023-02-01T22:38:33.466Z,100304.72
2023-02-01T22:41:02.681Z,100319.34
2023-02-01T22:43:29.394Z,100322.13
2023-02-01T22:46:03.434Z,100320.41
2023-02-01T22:48:31.232Z,100325.78
2023-02-01T22:50:58.932Z,100331.28
2023-02-01T22:53:26.189Z,100329.13
2023-02-01T22:55:52.694Z,100334.69
2023-02-01T22:58:19.630Z,100333.59
2023-02-01T23:00:46.669Z,100326.47
2023-02-01T23:03:13.194Z,100343.69
2023-02-01T23:05:40.553Z,100337.97
2023-02-01T23:08:07.085Z,100344.50
2023-02-01T23:10:33.689Z,100341.31
2023-02-01T23:13:00.202Z,100336.25
2023-02-01T23:15:26.776Z,100343.03
2023-02-01T23:17:53.339Z,100342.00
2023-02-01T23:20:20.424Z,100329.91
2023-02-01T23:22:48.873Z,100324.91
2023-02-01T23:25:17.601Z,100342.78
2023-02-01T23:27:44.580Z,100331.03
2023-02-01T23:30:11.846Z,100339.41
2023-02-01T23:32:38.607Z,100338.91
2023-02-01T23:35:07.098Z,100339.22
2023-02-01T23:37:33.609Z,100350.56
2023-02-01T23:40:00.123Z,100344.47
2023-02-01T23:42:26.685Z,100331.28
2023-02-01T23:44:53.181Z,100336.81
2023-02-01T23:47:19.705Z,100335.88
2023-02-01T23:49:46.248Z,100329.91
2023-02-01T23:52:12.769Z,100336.78
2023-02-01T23:54:39.346Z,100352.22
2023-02-01T23:57:05.858Z,100350.09
2023-02-01T23:59:32.484Z,100361.13
